Kabombo Airport


Codes: FZRD/
Name: Kabombo Airport
City: Kabombo
Country: Congo [DRC]
Elevation: 1969 ft.

Photos at Kabombo Airport


   Photos courtesy of SpottingLog. You can add your own sightings and photos by signing up for a free trial today.



No photos found.

Weather at Kabombo Airport


Time (UTC)DescriptionTempratureWindCloud coverageVisibilityPressureHumidity
16-Jun-2024 09:00Few Clouds28°C11 mph, SE17%10000m1014hPa26%
16-Jun-2024 12:00Few Clouds30°C7 mph, SE15%10000m1013hPa24%
16-Jun-2024 15:00Scattered Clouds30°C7 mph, SE39%10000m1011hPa25%
16-Jun-2024 18:00Broken Clouds22°C4 mph, SE53%10000m1012hPa40%
16-Jun-2024 21:00Clear Sky19°C4 mph, SE9%10000m1014hPa46%
17-Jun-2024 00:00Scattered Clouds17°C4 mph, SE42%10000m1014hPa48%
17-Jun-2024 03:00Few Clouds17°C7 mph, SE22%10000m1014hPa46%
17-Jun-2024 06:00Few Clouds21°C9 mph, SE14%10000m1015hPa42%
17-Jun-2024 09:00Clear Sky30°C7 mph, SE1%10000m1014hPa24%
17-Jun-2024 12:00Clear Sky34°C4 mph, SE1%10000m1010hPa20%
17-Jun-2024 15:00Clear Sky32°C4 mph, SE1%10000m1009hPa25%
17-Jun-2024 18:00Clear Sky24°C4 mph, S1%10000m1012hPa39%
17-Jun-2024 21:00Clear Sky20°C2 mph, SE2%10000m1014hPa47%
18-Jun-2024 00:00Clear Sky19°C4 mph, SE3%10000m1013hPa49%
18-Jun-2024 03:00Clear Sky18°C7 mph, SE0%10000m1013hPa49%
18-Jun-2024 06:00Clear Sky22°C9 mph, SE0%10000m1015hPa39%
18-Jun-2024 09:00Clear Sky32°C7 mph, SE5%10000m1013hPa24%
18-Jun-2024 12:00Clear Sky36°C4 mph, SE4%10000m1009hPa18%
18-Jun-2024 15:00Clear Sky33°C2 mph, SE0%10000m1008hPa22%
18-Jun-2024 18:00Clear Sky25°C4 mph, SE0%10000m1011hPa34%
18-Jun-2024 21:00Clear Sky21°C4 mph, S1%10000m1013hPa45%
19-Jun-2024 00:00Clear Sky19°C4 mph, SE1%10000m1012hPa49%
19-Jun-2024 03:00Clear Sky19°C7 mph, SE0%10000m1012hPa49%
19-Jun-2024 06:00Clear Sky23°C9 mph, SE1%10000m1014hPa38%
19-Jun-2024 09:00Few Clouds33°C9 mph, SE13%10000m1012hPa23%
19-Jun-2024 12:00Scattered Clouds36°C4 mph, SE46%10000m1008hPa19%
19-Jun-2024 15:00Broken Clouds34°C2 mph, S78%10000m1007hPa22%
19-Jun-2024 18:00Broken Clouds26°C4 mph, SE80%10000m1011hPa33%
19-Jun-2024 21:00Broken Clouds23°C4 mph, S54%10000m1012hPa42%
20-Jun-2024 00:00Scattered Clouds21°C4 mph, SE38%10000m1011hPa46%
20-Jun-2024 03:00Broken Clouds20°C4 mph, SE76%10000m1012hPa48%
20-Jun-2024 06:00Overcast Clouds24°C7 mph, SE88%10000m1014hPa39%
20-Jun-2024 09:00Broken Clouds33°C7 mph, SE83%10000m1013hPa25%
20-Jun-2024 12:00Overcast Clouds36°C4 mph, E89%10000m1009hPa21%
20-Jun-2024 15:00Broken Clouds34°C4 mph, E62%10000m1008hPa24%
20-Jun-2024 18:00Scattered Clouds28°C4 mph, SE47%10000m1011hPa34%
20-Jun-2024 21:00Overcast Clouds26°C2 mph, SE85%10000m1012hPa38%
21-Jun-2024 00:00Broken Clouds24°C4 mph, SE66%10000m1011hPa43%
21-Jun-2024 03:00Clear Sky21°C4 mph, E5%10000m1013hPa52%
21-Jun-2024 06:00Clear Sky25°C4 mph, SE3%10000m1015hPa42%